Time;durP1;ratioP1;P1;durP2;ratioP2;P2;SDS_P1;SDS_P2;PMS_P1;PMS_P2;Temp;Humidity;BMP_temperature;BMP_pressure;BME280_temperature;BME280_humidity;BME280_pressure;Samples;Min_cycle;Max_cycle;Signal;HPM_P1;HPM_P2
2021/06/26 00:01:55;;;;;;;14.88;11.65;;;19.00;96.40;;;;;;5010040;28;20133;-78
2021/06/26 00:04:21;;;;;;;14.80;12.20;;;19.00;96.50;;;;;;5000327;28;20046;-78
2021/06/26 00:06:46;;;;;;;13.48;11.63;;;18.90;96.60;;;;;;5046989;28;20050;-78
2021/06/26 00:09:12;;;;;;;14.57;11.32;;;18.90;96.60;;;;;;5015442;28;20042;-80
2021/06/26 00:11:38;;;;;;;13.18;10.48;;;18.80;96.60;;;;;;5003085;28;20030;-78
2021/06/26 00:14:04;;;;;;;18.23;12.32;;;18.80;96.70;;;;;;5015905;28;20067;-78
2021/06/26 00:16:30;;;;;;;17.13;11.13;;;18.80;96.80;;;;;;5015244;28;20038;-78
2021/06/26 00:18:56;;;;;;;17.42;12.90;;;18.70;96.80;;;;;;5013341;28;20050;-79
2021/06/26 00:21:21;;;;;;;20.08;13.75;;;18.70;96.90;;;;;;5002114;28;20037;-78
2021/06/26 00:23:46;;;;;;;16.25;12.07;;;18.60;96.90;;;;;;5004270;28;20153;-78
2021/06/26 00:26:12;;;;;;;14.50;11.77;;;18.60;97.00;;;;;;5013580;28;20397;-78
2021/06/26 00:28:37;;;;;;;19.45;13.95;;;18.60;97.10;;;;;;5001592;28;20057;-78
2021/06/26 00:31:03;;;;;;;18.92;14.38;;;18.50;97.10;;;;;;5001509;28;20042;-78
2021/06/26 00:33:29;;;;;;;19.73;13.63;;;18.50;97.20;;;;;;5004446;28;20057;-78
2021/06/26 00:35:54;;;;;;;18.48;13.75;;;18.50;97.30;;;;;;5004405;28;20089;-81
2021/06/26 00:38:20;;;;;;;20.63;14.50;;;18.40;97.30;;;;;;5014617;28;20041;-78
2021/06/26 00:40:45;;;;;;;18.17;13.82;;;18.40;97.40;;;;;;5007726;28;20665;-81
2021/06/26 00:43:11;;;;;;;22.75;15.60;;;18.30;97.40;;;;;;5002959;28;20042;-80
2021/06/26 00:45:36;;;;;;;24.33;16.88;;;18.30;97.40;;;;;;5002539;28;20099;-81
2021/06/26 00:48:02;;;;;;;27.60;17.95;;;18.30;97.50;;;;;;5002708;28;20061;-78
2021/06/26 00:50:29;;;;;;;26.90;21.00;;;18.30;97.70;;;;;;5015844;28;20041;-78
2021/06/26 00:52:55;;;;;;;27.20;19.15;;;18.20;98.10;;;;;;5007470;28;20424;-78
2021/06/26 00:55:22;;;;;;;25.10;18.55;;;18.20;98.20;;;;;;5010086;28;20029;-81
2021/06/26 00:57:58;;;;;;;26.85;19.63;;;18.20;98.20;;;;;;5003035;28;20069;-81
2021/06/26 01:00:28;;;;;;;31.05;20.45;;;18.20;98.30;;;;;;5002947;28;20049;-79
2021/06/26 01:02:54;;;;;;;27.92;19.38;;;18.10;98.40;;;;;;5003662;28;20042;-79
2021/06/26 01:05:20;;;;;;;28.33;19.83;;;18.10;98.30;;;;;;5006284;28;20042;-79
2021/06/26 01:07:47;;;;;;;27.48;19.45;;;18.10;98.30;;;;;;4997540;28;20108;-79
2021/06/26 01:10:13;;;;;;;31.08;20.85;;;18.10;98.20;;;;;;5008585;28;20330;-80
2021/06/26 01:12:39;;;;;;;26.95;18.58;;;18.10;98.20;;;;;;5012319;28;20053;-79
2021/06/26 01:15:06;;;;;;;31.10;19.60;;;18.10;98.20;;;;;;4999223;28;20035;-79
2021/06/26 01:17:32;;;;;;;26.05;19.95;;;18.10;98.10;;;;;;5014778;28;20092;-79
2021/06/26 01:20:00;;;;;;;27.63;20.58;;;18.10;98.10;;;;;;5048566;28;20038;-79
2021/06/26 01:22:30;;;;;;;28.77;21.52;;;18.10;98.10;;;;;;5010216;28;20321;-80
2021/06/26 01:24:55;;;;;;;36.72;22.63;;;18.10;98.00;;;;;;5004939;28;20046;-79
2021/06/26 01:27:21;;;;;;;31.83;21.08;;;18.10;98.10;;;;;;5008630;28;20126;-79
2021/06/26 01:29:49;;;;;;;27.70;20.50;;;18.10;98.20;;;;;;5004982;28;20038;-80
2021/06/26 01:32:15;;;;;;;29.63;19.90;;;18.10;98.10;;;;;;5004199;28;20045;-80
2021/06/26 01:34:41;;;;;;;31.42;21.05;;;18.00;98.10;;;;;;5016271;28;20046;-80
2021/06/26 01:37:06;;;;;;;29.92;20.75;;;18.00;98.00;;;;;;5018948;28;20072;-80
2021/06/26 01:39:32;;;;;;;28.05;18.23;;;18.00;98.00;;;;;;5015216;28;20042;-80
2021/06/26 01:41:57;;;;;;;28.40;19.58;;;18.00;98.00;;;;;;5017329;28;20053;-80
2021/06/26 01:44:23;;;;;;;26.98;20.15;;;18.00;98.00;;;;;;5016695;28;20038;-80
2021/06/26 01:46:49;;;;;;;29.63;20.42;;;17.90;98.00;;;;;;5011139;28;20042;-80
2021/06/26 01:49:16;;;;;;;28.15;19.95;;;18.00;98.00;;;;;;5007086;28;20489;-80
2021/06/26 01:51:42;;;;;;;25.92;18.35;;;17.90;98.00;;;;;;5046580;28;20402;-79
2021/06/26 01:54:09;;;;;;;28.88;20.33;;;17.90;98.00;;;;;;5004648;28;20044;-80
2021/06/26 01:56:36;;;;;;;29.98;18.80;;;17.90;98.00;;;;;;5014317;28;20120;-80
2021/06/26 01:59:02;;;;;;;27.92;19.25;;;17.90;98.00;;;;;;5017627;28;20466;-79
2021/06/26 02:01:28;;;;;;;28.88;21.13;;;17.80;98.00;;;;;;5009254;28;20093;-81
2021/06/26 02:03:53;;;;;;;31.77;21.35;;;17.80;98.00;;;;;;5018188;28;20042;-81
2021/06/26 02:06:19;;;;;;;33.45;21.67;;;17.80;98.00;;;;;;5009965;28;20046;-80
2021/06/26 02:08:44;;;;;;;32.85;21.17;;;17.70;98.00;;;;;;5015430;28;20104;-80
2021/06/26 02:11:10;;;;;;;28.95;20.20;;;17.70;98.00;;;;;;5015310;28;20121;-80
2021/06/26 02:13:36;;;;;;;32.58;21.65;;;17.70;98.10;;;;;;5020823;28;20121;-79
2021/06/26 02:16:01;;;;;;;27.38;19.50;;;17.60;98.10;;;;;;5019604;28;20042;-80
2021/06/26 02:18:27;;;;;;;31.23;20.77;;;17.60;98.20;;;;;;5016114;28;20131;-80
2021/06/26 02:20:52;;;;;;;28.50;20.33;;;17.60;98.20;;;;;;5007928;28;20418;-80
2021/06/26 02:23:18;;;;;;;32.42;20.50;;;17.50;98.20;;;;;;5035155;28;20041;-80
2021/06/26 02:25:43;;;;;;;30.15;19.05;;;17.50;98.20;;;;;;5019535;28;20664;-80
2021/06/26 02:28:09;;;;;;;33.33;20.98;;;17.50;98.20;;;;;;5019336;28;20045;-80
2021/06/26 02:30:34;;;;;;;33.55;20.65;;;17.40;98.20;;;;;;5005590;28;20357;-80
2021/06/26 02:33:00;;;;;;;31.02;21.95;;;17.40;98.20;;;;;;5011245;28;20053;-80
2021/06/26 02:35:25;;;;;;;32.40;22.10;;;17.40;98.30;;;;;;5004980;28;20056;-80
2021/06/26 02:37:51;;;;;;;33.00;20.70;;;17.40;98.30;;;;;;5000725;28;20049;-79
2021/06/26 02:40:17;;;;;;;34.30;21.77;;;17.40;98.30;;;;;;5016048;28;20042;-80
2021/06/26 02:42:42;;;;;;;33.47;21.98;;;17.40;98.30;;;;;;5018308;28;20152;-80
2021/06/26 02:45:08;;;;;;;30.20;21.67;;;17.30;98.30;;;;;;5025687;28;20038;-80
2021/06/26 02:47:34;;;;;;;32.03;21.48;;;17.40;98.40;;;;;;5005324;28;20055;-81
2021/06/26 02:50:00;;;;;;;34.67;22.13;;;17.30;98.40;;;;;;5013853;28;20046;-78
2021/06/26 02:52:26;;;;;;;29.70;20.58;;;17.30;98.40;;;;;;5014116;28;20113;-79
2021/06/26 02:54:52;;;;;;;29.10;18.92;;;17.30;98.50;;;;;;5009885;28;20405;-79
2021/06/26 02:57:18;;;;;;;28.40;19.00;;;17.30;98.50;;;;;;5035024;28;20085;-79
2021/06/26 02:59:48;;;;;;;33.38;20.67;;;17.40;98.60;;;;;;5003264;28;20045;-79
2021/06/26 03:02:13;;;;;;;30.25;20.58;;;17.40;98.70;;;;;;5012899;28;20046;-79
2021/06/26 03:04:39;;;;;;;30.10;21.25;;;17.40;98.70;;;;;;5005190;28;20157;-80
2021/06/26 03:07:05;;;;;;;31.23;21.15;;;17.40;98.80;;;;;;5047412;28;20042;-80
2021/06/26 03:09:30;;;;;;;31.80;21.70;;;17.50;98.80;;;;;;5016967;28;20057;-82
2021/06/26 03:11:56;;;;;;;35.45;21.58;;;17.50;98.90;;;;;;5027998;28;20041;-79
2021/06/26 03:14:21;;;;;;;33.53;22.27;;;17.50;98.80;;;;;;5011357;28;20116;-81
2021/06/26 03:16:46;;;;;;;33.83;23.33;;;17.60;98.90;;;;;;5005476;28;20067;-81
2021/06/26 03:19:14;;;;;;;28.70;20.40;;;17.60;98.80;;;;;;5017476;28;20045;-80
2021/06/26 03:21:39;;;;;;;30.67;22.10;;;17.60;98.80;;;;;;5008818;28;20045;-79
2021/06/26 03:24:05;;;;;;;31.10;20.42;;;17.60;98.80;;;;;;5010521;28;20057;-79
2021/06/26 03:26:33;;;;;;;31.40;22.00;;;17.60;98.80;;;;;;5013859;28;20042;-79
2021/06/26 03:28:59;;;;;;;30.55;18.27;;;17.60;98.80;;;;;;5016168;28;20045;-78
2021/06/26 03:31:24;;;;;;;31.15;22.15;;;17.60;98.70;;;;;;5016064;28;20052;-78
2021/06/26 03:33:50;;;;;;;29.35;21.10;;;17.60;98.70;;;;;;5015083;28;20046;-80
2021/06/26 03:36:16;;;;;;;28.63;19.75;;;17.70;98.70;;;;;;5015616;28;20038;-78
2021/06/26 03:38:42;;;;;;;31.85;20.90;;;17.70;98.60;;;;;;5015965;28;20468;-78
2021/06/26 03:41:08;;;;;;;32.30;18.63;;;17.70;98.50;;;;;;5047056;28;20033;-79
2021/06/26 03:43:33;;;;;;;26.90;19.52;;;17.70;98.40;;;;;;5006963;28;20049;-79
2021/06/26 03:45:59;;;;;;;29.40;21.38;;;17.70;98.30;;;;;;5015693;28;20305;-82
2021/06/26 03:48:24;;;;;;;29.63;21.00;;;17.70;98.30;;;;;;5015249;28;20110;-79
2021/06/26 03:50:50;;;;;;;26.83;19.13;;;17.70;98.40;;;;;;5018104;28;20108;-79
2021/06/26 03:53:16;;;;;;;28.77;19.83;;;17.70;98.30;;;;;;5017763;28;20077;-79
2021/06/26 03:55:51;;;;;;;31.98;21.75;;;17.70;98.30;;;;;;5007511;28;20366;-80
2021/06/26 03:58:21;;;;;;;33.00;21.30;;;17.70;98.30;;;;;;4999451;28;20046;-80
2021/06/26 04:00:46;;;;;;;28.05;20.48;;;17.70;98.30;;;;;;4999818;28;20130;-79
2021/06/26 04:03:12;;;;;;;34.75;21.73;;;17.70;98.30;;;;;;5035035;28;20053;-79
2021/06/26 04:05:37;;;;;;;30.77;20.50;;;17.70;98.30;;;;;;5000645;28;20369;-79
2021/06/26 04:08:03;;;;;;;32.67;22.13;;;17.80;98.40;;;;;;5012451;28;20481;-79
2021/06/26 04:10:29;;;;;;;32.40;21.58;;;17.80;98.40;;;;;;5005517;28;20033;-79
2021/06/26 04:12:54;;;;;;;29.60;20.40;;;17.80;98.40;;;;;;5012714;28;20435;-79
2021/06/26 04:15:20;;;;;;;35.95;23.08;;;17.80;98.40;;;;;;5008902;28;20042;-79
2021/06/26 04:17:45;;;;;;;32.08;21.77;;;17.90;98.40;;;;;;5032313;28;20077;-80
2021/06/26 04:20:11;;;;;;;35.83;22.75;;;17.90;98.50;;;;;;5011022;28;20122;-79
2021/06/26 04:22:37;;;;;;;32.38;23.27;;;17.90;98.50;;;;;;5007377;28;20042;-80
2021/06/26 04:25:04;;;;;;;31.00;21.15;;;18.00;98.60;;;;;;5001244;28;20046;-80
2021/06/26 04:27:29;;;;;;;30.70;22.58;;;18.10;98.60;;;;;;5008657;28;20057;-79
2021/06/26 04:29:55;;;;;;;29.83;21.92;;;18.10;98.60;;;;;;5052929;28;20042;-80
2021/06/26 04:32:21;;;;;;;25.67;18.73;;;18.20;98.50;;;;;;5010812;28;20291;-80
2021/06/26 04:34:47;;;;;;;28.42;21.27;;;18.30;98.50;;;;;;5007020;28;20183;-80
2021/06/26 04:37:12;;;;;;;31.80;20.58;;;18.30;98.40;;;;;;5014994;28;20133;-82
2021/06/26 04:39:39;;;;;;;32.45;20.55;;;18.30;98.30;;;;;;5047242;28;20065;-82
2021/06/26 04:42:05;;;;;;;28.10;19.77;;;18.40;98.20;;;;;;5002564;28;20034;-82
2021/06/26 04:44:30;;;;;;;27.48;19.05;;;18.40;98.20;;;;;;5008217;28;20038;-80
2021/06/26 04:46:56;;;;;;;25.60;19.38;;;18.40;98.10;;;;;;5010856;28;20048;-79
2021/06/26 04:49:21;;;;;;;23.77;19.40;;;18.50;98.00;;;;;;5000575;28;20410;-80
2021/06/26 04:51:47;;;;;;;25.83;18.02;;;18.50;98.00;;;;;;5008406;28;20084;-81
2021/06/26 04:54:12;;;;;;;30.33;20.13;;;18.50;98.00;;;;;;5005350;28;20103;-81
2021/06/26 04:56:38;;;;;;;26.55;19.13;;;18.60;97.90;;;;;;5004735;28;20042;-81
2021/06/26 04:59:04;;;;;;;28.08;18.40;;;18.60;97.80;;;;;;5011541;28;20052;-81
2021/06/26 05:01:29;;;;;;;25.35;19.17;;;18.70;97.80;;;;;;5007532;28;20037;-81
2021/06/26 05:03:56;;;;;;;28.95;18.13;;;18.70;97.80;;;;;;5009383;28;20112;-82
2021/06/26 05:06:22;;;;;;;26.83;19.80;;;18.80;97.70;;;;;;5014119;28;20057;-81
2021/06/26 05:08:48;;;;;;;30.90;19.65;;;18.80;97.60;;;;;;5008258;28;20041;-81
2021/06/26 05:11:14;;;;;;;27.70;18.42;;;18.90;97.60;;;;;;5040346;28;20472;-81
2021/06/26 05:13:39;;;;;;;20.08;15.85;;;19.00;97.50;;;;;;5032110;28;20042;-80
2021/06/26 05:16:05;;;;;;;21.80;17.02;;;19.00;97.50;;;;;;5021690;28;20662;-81
2021/06/26 05:18:31;;;;;;;18.95;15.90;;;19.20;97.40;;;;;;5016275;28;20104;-82
2021/06/26 05:20:56;;;;;;;23.17;17.23;;;19.20;97.30;;;;;;5015347;28;20080;-79
2021/06/26 05:23:22;;;;;;;24.95;17.58;;;19.30;97.00;;;;;;5030142;28;20099;-80
2021/06/26 05:25:47;;;;;;;24.23;17.88;;;19.40;96.90;;;;;;5029538;28;20022;-79
2021/06/26 05:28:13;;;;;;;22.77;18.10;;;19.40;96.70;;;;;;5014678;28;20125;-82
2021/06/26 05:30:39;;;;;;;25.83;17.67;;;19.50;96.70;;;;;;5034060;28;20033;-79
2021/06/26 05:33:05;;;;;;;25.38;16.90;;;19.60;96.60;;;;;;5018685;28;20038;-80
2021/06/26 05:35:32;;;;;;;25.02;17.33;;;19.60;96.60;;;;;;5013518;28;20049;-79
2021/06/26 05:37:58;;;;;;;23.55;16.92;;;19.70;96.50;;;;;;5010622;28;20049;-80
2021/06/26 05:40:23;;;;;;;23.15;17.67;;;19.80;96.60;;;;;;5005716;28;20541;-80
2021/06/26 05:42:49;;;;;;;23.55;17.55;;;19.90;96.50;;;;;;5012565;28;20046;-81
2021/06/26 05:45:15;;;;;;;23.67;15.95;;;19.90;96.10;;;;;;5010457;28;20029;-80
2021/06/26 05:47:40;;;;;;;23.48;16.75;;;20.00;95.90;;;;;;5004445;28;20050;-81
2021/06/26 05:50:06;;;;;;;23.98;16.33;;;20.00;95.70;;;;;;5012011;28;20052;-82
2021/06/26 05:52:32;;;;;;;20.70;16.50;;;20.00;95.70;;;;;;5001773;28;20046;-81
2021/06/26 05:54:58;;;;;;;22.40;15.57;;;20.00;95.70;;;;;;5002491;28;20030;-81
2021/06/26 05:57:23;;;;;;;24.45;15.95;;;20.10;95.80;;;;;;5002169;28;20040;-81
2021/06/26 05:59:49;;;;;;;20.65;17.08;;;20.10;95.60;;;;;;4999599;28;20567;-81
2021/06/26 06:02:15;;;;;;;20.63;15.32;;;20.10;95.60;;;;;;4998700;28;20045;-82
2021/06/26 06:04:41;;;;;;;21.48;16.52;;;20.10;95.50;;;;;;5007840;28;20038;-80
2021/06/26 06:07:07;;;;;;;19.65;16.02;;;20.10;95.50;;;;;;5012564;28;20042;-80
2021/06/26 06:09:33;;;;;;;21.27;16.27;;;20.20;95.50;;;;;;5028296;28;20097;-80
2021/06/26 06:11:59;;;;;;;17.20;14.27;;;20.20;95.40;;;;;;5012577;28;20413;-80
2021/06/26 06:14:24;;;;;;;21.15;14.80;;;20.20;95.50;;;;;;5017781;28;20038;-81
2021/06/26 06:16:50;;;;;;;19.73;15.18;;;20.30;95.50;;;;;;5010850;28;20046;-79
2021/06/26 06:19:15;;;;;;;18.27;14.00;;;20.40;95.20;;;;;;5010811;28;20048;-81
2021/06/26 06:21:41;;;;;;;20.08;12.90;;;20.40;94.80;;;;;;5017049;28;20050;-81
2021/06/26 06:24:06;;;;;;;19.67;14.43;;;20.40;94.80;;;;;;5014799;28;20038;-79
2021/06/26 06:26:32;;;;;;;18.73;14.90;;;20.50;94.60;;;;;;5003580;28;20058;-81
2021/06/26 06:28:57;;;;;;;15.90;12.68;;;20.50;94.60;;;;;;5011868;28;20042;-81
2021/06/26 06:31:23;;;;;;;16.73;13.35;;;20.60;94.40;;;;;;5003890;28;20065;-80
2021/06/26 06:33:48;;;;;;;16.80;12.50;;;20.70;94.20;;;;;;5013609;28;20057;-81
2021/06/26 06:36:14;;;;;;;17.50;13.18;;;20.80;94.30;;;;;;5017545;28;20037;-81
2021/06/26 06:38:39;;;;;;;17.50;13.48;;;20.90;93.90;;;;;;5009048;28;20125;-79
2021/06/26 06:41:05;;;;;;;16.90;13.25;;;21.00;93.50;;;;;;5007267;28;20046;-80
2021/06/26 06:43:30;;;;;;;19.20;13.60;;;21.00;93.40;;;;;;5017676;28;20164;-80
2021/06/26 06:45:56;;;;;;;21.42;13.82;;;21.00;93.40;;;;;;5018187;28;20056;-81
2021/06/26 06:48:21;;;;;;;16.02;13.20;;;21.10;93.70;;;;;;5017330;28;20038;-81
2021/06/26 06:50:47;;;;;;;16.90;12.55;;;21.10;93.70;;;;;;5007449;28;20042;-80
2021/06/26 06:53:12;;;;;;;14.35;11.02;;;21.20;93.40;;;;;;5009180;28;20034;-80
2021/06/26 06:55:38;;;;;;;14.82;11.60;;;21.30;92.80;;;;;;5013160;28;20049;-80
2021/06/26 06:58:03;;;;;;;18.15;12.27;;;21.30;92.70;;;;;;5015801;28;20049;-81
2021/06/26 07:00:29;;;;;;;18.15;12.93;;;21.40;92.50;;;;;;5013289;28;20064;-80
2021/06/26 07:02:54;;;;;;;16.30;12.57;;;21.40;92.70;;;;;;5007998;28;20061;-81
2021/06/26 07:05:20;;;;;;;15.02;11.75;;;21.50;92.50;;;;;;4998848;28;20353;-80
2021/06/26 07:07:46;;;;;;;19.02;13.20;;;21.50;92.00;;;;;;5017452;28;20066;-80
2021/06/26 07:10:11;;;;;;;16.02;12.02;;;21.60;92.20;;;;;;5012813;28;20456;-81
2021/06/26 07:12:37;;;;;;;16.88;11.88;;;21.60;92.20;;;;;;5017633;28;20397;-80
2021/06/26 07:15:04;;;;;;;17.45;13.07;;;21.70;92.20;;;;;;5016456;28;20038;-80
2021/06/26 07:17:29;;;;;;;17.42;11.48;;;21.80;91.90;;;;;;5001759;28;20049;-81
2021/06/26 07:19:55;;;;;;;16.80;12.15;;;21.90;91.30;;;;;;5018246;28;20041;-80
2021/06/26 07:22:20;;;;;;;15.40;11.45;;;22.00;91.40;;;;;;5017129;28;20037;-80
2021/06/26 07:24:46;;;;;;;12.55;10.38;;;22.10;90.70;;;;;;5007332;28;20038;-80
2021/06/26 07:27:11;;;;;;;13.93;10.73;;;22.20;90.20;;;;;;5016372;28;20107;-81
2021/06/26 07:29:37;;;;;;;14.20;10.38;;;22.40;90.40;;;;;;5017204;28;20061;-80
2021/06/26 07:32:03;;;;;;;13.77;10.75;;;22.60;89.50;;;;;;5017760;28;20405;-79
2021/06/26 07:34:30;;;;;;;14.80;10.73;;;22.70;90.20;;;;;;5009817;28;20049;-79
2021/06/26 07:36:55;;;;;;;15.85;10.90;;;22.90;90.50;;;;;;5012523;28;20057;-79
2021/06/26 07:39:21;;;;;;;16.67;11.40;;;23.10;90.10;;;;;;5017046;28;20038;-79
2021/06/26 07:41:46;;;;;;;13.73;11.20;;;23.20;89.30;;;;;;5019204;28;20301;-79
2021/06/26 07:44:12;;;;;;;13.52;11.30;;;23.30;88.30;;;;;;5036980;28;20049;-80
2021/06/26 07:46:38;;;;;;;13.45;10.43;;;23.40;87.20;;;;;;5006810;28;20042;-81
2021/06/26 07:49:04;;;;;;;13.23;10.90;;;23.40;88.00;;;;;;5008270;28;20041;-79
2021/06/26 07:51:29;;;;;;;14.45;10.88;;;23.40;87.10;;;;;;5016165;28;20106;-80
2021/06/26 07:53:55;;;;;;;12.82;10.63;;;23.50;86.70;;;;;;5013721;28;20044;-78
2021/06/26 07:56:21;;;;;;;13.65;10.55;;;23.40;87.70;;;;;;5005930;28;20192;-73
2021/06/26 07:58:46;;;;;;;14.75;11.70;;;23.40;87.70;;;;;;5008266;28;20037;-72
2021/06/26 08:01:14;;;;;;;15.35;11.15;;;23.40;87.50;;;;;;5016793;28;20045;-72
2021/06/26 08:03:39;;;;;;;15.27;9.70;;;23.50;87.30;;;;;;5016181;28;20298;-72
2021/06/26 08:06:05;;;;;;;11.82;9.77;;;23.60;85.10;;;;;;5016949;28;20048;-72
2021/06/26 08:08:30;;;;;;;15.15;10.27;;;23.80;85.40;;;;;;5015391;28;20368;-73
2021/06/26 08:10:56;;;;;;;11.43;9.75;;;24.00;85.20;;;;;;5017093;28;20093;-72
2021/06/26 08:13:23;;;;;;;15.43;11.07;;;24.10;85.10;;;;;;5017362;28;20045;-72
2021/06/26 08:15:49;;;;;;;12.32;10.95;;;24.10;84.90;;;;;;5016475;28;20371;-72
2021/06/26 08:18:15;;;;;;;14.40;11.02;;;24.10;82.90;;;;;;5016927;28;20065;-73
2021/06/26 08:20:41;;;;;;;14.88;11.07;;;24.00;83.00;;;;;;5015220;28;20136;-72
2021/06/26 08:23:06;;;;;;;12.07;9.82;;;24.00;84.50;;;;;;5009331;28;20487;-71
2021/06/26 08:25:32;;;;;;;14.50;10.48;;;23.90;85.20;;;;;;5015568;28;20054;-73
2021/06/26 08:27:57;;;;;;;14.93;9.57;;;23.80;83.90;;;;;;5015498;28;20389;-73
2021/06/26 08:30:24;;;;;;;16.52;10.63;;;23.80;83.40;;;;;;5015784;28;20041;-72
2021/06/26 08:32:50;;;;;;;13.05;10.30;;;23.70;84.20;;;;;;5015677;28;20042;-72
2021/06/26 08:35:16;;;;;;;16.67;11.93;;;23.60;83.10;;;;;;5014833;28;20029;-72
2021/06/26 08:37:45;;;;;;;13.45;9.57;;;23.60;84.00;;;;;;5016001;28;20080;-72
2021/06/26 08:40:13;;;;;;;14.00;9.82;;;23.50;83.30;;;;;;5015122;28;20099;-72
2021/06/26 08:42:38;;;;;;;16.98;10.68;;;23.50;84.50;;;;;;5013892;28;20383;-72
2021/06/26 08:45:08;;;;;;;12.90;9.43;;;23.40;83.40;;;;;;5011052;28;20045;-72
2021/06/26 08:47:33;;;;;;;12.88;8.75;;;23.50;84.30;;;;;;5008141;28;20053;-74
2021/06/26 08:49:59;;;;;;;12.65;9.68;;;23.60;83.60;;;;;;5002779;28;20347;-72
2021/06/26 08:52:26;;;;;;;15.68;9.52;;;23.90;81.90;;;;;;5008770;28;20104;-74
2021/06/26 08:54:53;;;;;;;8.43;7.28;;;24.10;82.90;;;;;;5013935;28;20095;-73
2021/06/26 08:57:32;;;;;;;8.50;7.10;;;24.40;83.30;;;;;;5011505;28;20041;-74
2021/06/26 08:59:59;;;;;;;10.65;6.95;;;24.80;83.10;;;;;;5024891;28;20053;-73
2021/06/26 09:02:26;;;;;;;8.60;6.35;;;25.10;80.40;;;;;;5014279;28;20042;-72
2021/06/26 09:04:52;;;;;;;12.48;6.65;;;25.30;77.40;;;;;;5015271;28;20034;-72
2021/06/26 09:07:27;;;;;;;11.50;7.82;;;25.40;75.30;;;;;;5014216;28;20038;-72
2021/06/26 09:09:56;;;;;;;8.70;7.40;;;25.30;72.90;;;;;;5010241;28;20042;-72
2021/06/26 09:12:22;;;;;;;12.85;7.40;;;25.30;75.10;;;;;;5015448;28;20041;-73
2021/06/26 09:14:47;;;;;;;8.35;6.85;;;25.30;74.70;;;;;;5015540;28;20034;-72
2021/06/26 09:17:17;;;;;;;8.30;6.57;;;25.40;77.50;;;;;;5015975;28;20671;-73
2021/06/26 09:19:58;;;;;;;9.02;6.75;;;25.40;74.80;;;;;;5014479;28;20056;-74
2021/06/26 09:22:24;;;;;;;7.43;6.07;;;25.40;75.80;;;;;;5006501;28;20169;-74
2021/06/26 09:24:51;;;;;;;8.02;6.45;;;25.30;75.70;;;;;;5007125;28;20202;-74
2021/06/26 09:27:20;;;;;;;7.75;6.63;;;25.30;72.90;;;;;;5015025;28;20045;-75
2021/06/26 09:29:50;;;;;;;6.93;6.18;;;25.20;73.20;;;;;;5014270;28;20049;-74
2021/06/26 09:32:28;;;;;;;12.05;7.03;;;25.10;74.60;;;;;;5014998;28;20091;-73
2021/06/26 09:34:55;;;;;;;7.95;6.20;;;25.00;76.90;;;;;;5015303;28;20041;-73
2021/06/26 09:37:25;;;;;;;6.60;5.85;;;24.80;75.80;;;;;;5016073;28;20048;-73
2021/06/26 09:39:53;;;;;;;10.48;7.25;;;24.70;78.30;;;;;;5016009;28;20046;-75
2021/06/26 09:42:27;;;;;;;7.30;6.53;;;24.80;73.80;;;;;;5018731;28;20042;-74
2021/06/26 09:44:58;;;;;;;7.95;5.30;;;24.80;72.30;;;;;;5018779;28;20120;-74
2021/06/26 09:47:41;;;;;;;10.32;5.55;;;24.80;71.80;;;;;;5019176;28;20076;-75
2021/06/26 09:50:18;;;;;;;5.57;4.75;;;24.90;73.00;;;;;;5018726;28;20041;-74
2021/06/26 09:52:48;;;;;;;5.78;5.15;;;25.00;70.60;;;;;;5018168;28;20143;-74
2021/06/26 09:55:20;;;;;;;6.00;5.13;;;25.30;73.50;;;;;;5017968;28;20045;-74
2021/06/26 09:57:46;;;;;;;6.97;4.87;;;25.60;70.30;;;;;;5011660;28;20050;-74
2021/06/26 10:00:16;;;;;;;7.57;5.55;;;26.00;73.20;;;;;;5000286;28;20042;-74
2021/06/26 10:02:43;;;;;;;7.00;5.80;;;26.30;69.80;;;;;;5005630;28;20042;-74
2021/06/26 10:05:09;;;;;;;6.43;4.55;;;26.70;66.90;;;;;;5018491;28;20409;-75
2021/06/26 10:07:37;;;;;;;5.70;4.90;;;26.80;67.70;;;;;;5018456;28;20124;-76
2021/06/26 10:10:03;;;;;;;7.13;5.75;;;26.90;67.00;;;;;;5017995;28;20037;-76
2021/06/26 10:12:29;;;;;;;5.72;4.63;;;26.80;67.80;;;;;;5018666;28;20042;-73
2021/06/26 10:14:56;;;;;;;7.22;5.43;;;26.80;66.50;;;;;;5018225;28;20038;-75
2021/06/26 10:17:23;;;;;;;7.30;5.47;;;26.70;67.60;;;;;;5019086;28;20126;-75
2021/06/26 10:19:52;;;;;;;7.25;6.53;;;26.40;69.90;;;;;;5018400;28;20050;-75
2021/06/26 10:22:17;;;;;;;8.05;5.40;;;26.30;71.00;;;;;;5013389;28;20038;-74
2021/06/26 10:24:46;;;;;;;6.68;5.97;;;26.20;71.70;;;;;;5018657;28;20096;-75
2021/06/26 10:27:22;;;;;;;10.60;5.63;;;26.00;69.70;;;;;;5018655;28;20037;-75
2021/06/26 10:29:48;;;;;;;7.40;5.78;;;25.90;70.40;;;;;;5017321;28;20048;-75
2021/06/26 10:32:16;;;;;;;6.28;5.43;;;25.70;72.70;;;;;;5009555;28;20365;-76
2021/06/26 10:34:42;;;;;;;11.95;6.53;;;25.60;71.80;;;;;;4999052;28;20034;-76
2021/06/26 10:37:19;;;;;;;6.40;5.30;;;25.50;72.10;;;;;;5015494;28;20125;-76
2021/06/26 10:39:46;;;;;;;7.45;5.60;;;25.40;74.20;;;;;;5014006;28;20061;-77
2021/06/26 10:42:14;;;;;;;7.03;6.05;;;25.50;72.60;;;;;;5035130;28;20046;-77
2021/06/26 10:44:43;;;;;;;5.93;5.05;;;25.60;71.80;;;;;;5017655;28;20042;-76
2021/06/26 10:47:09;;;;;;;5.57;4.93;;;26.00;68.20;;;;;;5011123;28;20038;-76
2021/06/26 10:49:35;;;;;;;6.40;5.35;;;26.30;67.30;;;;;;5001205;28;20042;-76
2021/06/26 10:52:09;;;;;;;8.85;4.43;;;26.40;67.70;;;;;;5016995;28;20422;-76
2021/06/26 10:54:35;;;;;;;6.35;4.38;;;26.60;65.90;;;;;;5017840;28;20041;-76
2021/06/26 10:57:06;;;;;;;6.05;5.30;;;26.80;66.30;;;;;;5017000;28;20046;-76
2021/06/26 10:59:33;;;;;;;4.70;4.10;;;27.00;64.70;;;;;;5017688;28;20038;-77
2021/06/26 11:02:05;;;;;;;7.10;4.60;;;27.20;66.30;;;;;;5018150;28;20297;-76
2021/06/26 11:04:32;;;;;;;7.88;4.40;;;27.40;65.30;;;;;;5017694;28;20045;-76
2021/06/26 11:07:06;;;;;;;6.63;5.05;;;27.40;66.90;;;;;;5003942;28;20045;-76
2021/06/26 11:09:36;;;;;;;5.97;4.72;;;27.40;65.80;;;;;;5007477;28;20034;-75
2021/06/26 11:12:12;;;;;;;6.47;4.60;;;27.30;64.50;;;;;;5016742;28;20103;-76
2021/06/26 11:14:50;;;;;;;4.40;3.63;;;27.20;63.60;;;;;;5017694;28;20467;-75
2021/06/26 11:17:16;;;;;;;5.90;4.90;;;27.00;66.40;;;;;;5032681;28;20050;-75
2021/06/26 11:19:42;;;;;;;8.02;4.80;;;26.80;64.30;;;;;;5012563;28;20049;-74
2021/06/26 11:22:07;;;;;;;5.00;4.40;;;26.60;65.70;;;;;;5011477;28;20073;-76
2021/06/26 11:24:42;;;;;;;5.32;4.60;;;26.40;68.20;;;;;;5012928;28;20318;-76
2021/06/26 11:27:12;;;;;;;5.50;4.15;;;26.30;66.40;;;;;;5015436;28;20042;-74
2021/06/26 11:29:41;;;;;;;6.32;4.88;;;26.20;67.20;;;;;;5014452;28;20596;-75
2021/06/26 11:32:28;;;;;;;7.18;5.13;;;26.30;71.10;;;;;;5005619;28;20041;-75
2021/06/26 11:34:58;;;;;;;4.40;4.00;;;26.40;68.50;;;;;;5005803;28;20045;-74
2021/06/26 11:37:42;;;;;;;5.65;4.68;;;26.60;66.60;;;;;;5018955;28;20401;-74
2021/06/26 11:40:14;;;;;;;7.60;4.93;;;26.70;63.90;;;;;;5015995;28;20057;-74
2021/06/26 11:42:48;;;;;;;5.95;4.15;;;26.80;66.80;;;;;;5016909;28;20098;-73
2021/06/26 11:45:17;;;;;;;4.68;4.15;;;27.00;65.80;;;;;;5024907;28;20042;-74
2021/06/26 11:47:43;;;;;;;4.97;4.22;;;27.10;67.10;;;;;;5020154;28;20095;-76
2021/06/26 11:50:13;;;;;;;5.13;4.22;;;27.40;65.90;;;;;;5003516;28;20392;-73
2021/06/26 11:52:38;;;;;;;4.05;3.65;;;27.70;63.70;;;;;;5012724;28;20034;-76
2021/06/26 11:55:04;;;;;;;5.15;4.05;;;27.80;64.20;;;;;;5013135;28;20034;-75
2021/06/26 11:57:30;;;;;;;6.47;4.63;;;28.00;65.00;;;;;;5007103;28;20042;-73
2021/06/26 11:59:56;;;;;;;5.55;4.47;;;28.10;62.70;;;;;;5007301;28;20061;-74
2021/06/26 12:02:31;;;;;;;5.88;4.35;;;28.10;63.30;;;;;;5009247;28;20275;-73
2021/06/26 12:04:57;;;;;;;5.47;4.93;;;28.00;62.20;;;;;;5005483;28;20060;-75
2021/06/26 12:07:36;;;;;;;6.65;5.38;;;27.70;62.50;;;;;;5015920;28;20042;-75
2021/06/26 12:10:07;;;;;;;5.93;4.25;;;27.50;63.80;;;;;;5009608;28;20341;-73
2021/06/26 12:12:35;;;;;;;7.90;4.65;;;27.40;64.30;;;;;;5014781;28;20042;-73
2021/06/26 12:15:00;;;;;;;5.65;4.05;;;27.40;64.40;;;;;;5008500;28;20046;-73
2021/06/26 12:17:26;;;;;;;6.32;4.20;;;27.40;65.30;;;;;;5004443;28;20162;-75
2021/06/26 12:20:06;;;;;;;5.72;4.22;;;27.60;64.50;;;;;;5006831;28;20125;-73
2021/06/26 12:22:32;;;;;;;6.00;4.60;;;27.70;67.20;;;;;;4998514;28;20038;-73
2021/06/26 12:25:09;;;;;;;5.55;3.67;;;27.90;64.70;;;;;;5003944;28;20046;-73
2021/06/26 12:27:36;;;;;;;4.03;3.47;;;28.10;64.50;;;;;;5045066;28;20041;-73
2021/06/26 12:30:07;;;;;;;6.13;3.83;;;28.10;62.10;;;;;;5016370;28;20057;-73
2021/06/26 12:32:35;;;;;;;5.22;4.22;;;28.10;62.90;;;;;;5012241;28;20030;-75